Clear Creek, California
Current Conditions -  °F | °C
As of 5:53 PM on Saturday 20 Dec 2014 (Local Time) from KOVE Reporting Station
Light Rain Light Rain  
Wind Chill: 54°   Ceiling: 3200
Heat Index: 54°   Visibility: 9mi
Dew Point: 51°   Wind: 10mph
Humidity: 90%   Direction: 140°SE
Pressure: 30.23"   Gusts: NA
Location:  40.2872°N, 121.096°W
Report Text: KOVE 210153Z AUTO 14009KT 9SM -RA OVC032 12/11 A3023 RMK AO2 SLP237 P0001 T01220106
Loading
Personal Weather Stations






























Interactive Weather Map New forecast layout! Learn more

10-Day Weather Forecast

Advertisements
Track Severe Weather on mobile